Time;durP1;ratioP1;P1;durP2;ratioP2;P2;SDS_P1;SDS_P2;PMS_P1;PMS_P2;Temp;Humidity;BMP_temperature;BMP_pressure;BME280_temperature;BME280_humidity;BME280_pressure;Samples;Min_cycle;Max_cycle;Signal;HPM_P1;HPM_P2
2022/12/06 00:01:47;;;;;;;3.53;1.00;;;;;;;14.26;59.68;101444.00;5031856;28;20022;-45
2022/12/06 00:04:16;;;;;;;6.25;1.10;;;;;;;14.37;60.19;101439.81;5032062;28;20048;-44
2022/12/06 00:06:46;;;;;;;5.70;1.27;;;;;;;14.39;60.16;101443.13;5022970;28;20471;-45
2022/12/06 00:09:24;;;;;;;3.83;0.90;;;;;;;14.24;60.52;101443.41;5015782;28;20041;-45
2022/12/06 00:11:52;;;;;;;4.55;0.93;;;;;;;14.27;60.22;101441.13;5012191;28;20018;-46
2022/12/06 00:14:18;;;;;;;4.40;1.10;;;;;;;14.30;60.65;101449.78;5011944;28;20026;-44
2022/12/06 00:16:45;;;;;;;2.55;0.73;;;;;;;14.22;60.77;101446.31;5011760;28;20348;-44
2022/12/06 00:19:16;;;;;;;8.05;0.88;;;;;;;14.08;61.29;101452.78;5012022;28;20030;-46
2022/12/06 00:21:43;;;;;;;4.80;1.08;;;;;;;14.02;61.57;101456.34;5012034;28;20034;-44
2022/12/06 00:24:16;;;;;;;7.68;1.20;;;;;;;13.95;61.96;101453.69;5015984;28;20021;-45
2022/12/06 00:26:46;;;;;;;4.40;0.80;;;;;;;14.03;61.63;101455.28;5031308;28;20445;-45
2022/12/06 00:29:17;;;;;;;4.47;1.10;;;;;;;13.92;62.25;101455.97;5031723;28;20195;-45
2022/12/06 00:31:44;;;;;;;5.88;1.13;;;;;;;14.09;62.30;101454.44;5031695;28;20017;-44
2022/12/06 00:34:10;;;;;;;5.20;0.80;;;;;;;13.79;63.26;101456.03;5031625;28;20022;-44
2022/12/06 00:36:39;;;;;;;10.25;1.05;;;;;;;13.79;63.52;101453.34;5031394;28;20026;-44
2022/12/06 00:39:10;;;;;;;7.72;1.30;;;;;;;13.75;64.32;101450.22;5031340;28;20030;-45
2022/12/06 00:41:36;;;;;;;5.68;1.27;;;;;;;13.67;64.29;101445.91;5031565;28;20105;-44
2022/12/06 00:44:03;;;;;;;7.47;1.30;;;;;;;13.88;63.91;101447.50;5030601;28;20486;-45
2022/12/06 00:46:31;;;;;;;5.82;1.20;;;;;;;13.64;64.67;101445.50;5031485;28;20057;-45
2022/12/06 00:48:59;;;;;;;7.20;1.30;;;;;;;13.73;64.39;101449.63;5030813;28;20050;-44
2022/12/06 00:51:27;;;;;;;6.53;1.27;;;;;;;13.58;64.82;101449.03;5031449;28;20386;-46
2022/12/06 00:53:54;;;;;;;4.78;1.20;;;;;;;13.50;65.04;101450.09;5031849;28;20029;-44
2022/12/06 00:56:21;;;;;;;6.15;1.20;;;;;;;13.42;65.24;101453.00;5034772;28;20091;-45
2022/12/06 00:58:47;;;;;;;9.73;1.45;;;;;;;13.54;65.20;101453.19;5034663;28;20393;-44
2022/12/06 01:01:15;;;;;;;5.38;1.45;;;;;;;13.47;65.53;101451.34;5026586;28;20094;-45
2022/12/06 01:03:43;;;;;;;11.05;1.85;;;;;;;13.47;65.40;101461.28;5016953;28;20025;-44
2022/12/06 01:06:14;;;;;;;7.03;1.42;;;;;;;13.39;65.94;101451.56;5031572;28;20025;-45
2022/12/06 01:08:42;;;;;;;3.70;1.23;;;;;;;13.30;66.24;101454.69;5034956;28;20485;-45
2022/12/06 01:11:09;;;;;;;7.85;1.60;;;;;;;13.39;65.99;101458.81;5020980;28;20026;-44
2022/12/06 01:13:35;;;;;;;3.75;1.17;;;;;;;13.44;66.08;101451.78;5021165;28;20026;-44
2022/12/06 01:16:07;;;;;;;10.48;1.65;;;;;;;13.22;66.71;101458.44;5025058;28;20026;-47
2022/12/06 01:18:33;;;;;;;6.93;1.55;;;;;;;13.10;66.95;101463.56;5032630;28;20029;-43
2022/12/06 01:21:07;;;;;;;7.90;1.30;;;;;;;13.07;67.32;101452.41;5033116;28;20025;-44
2022/12/06 01:23:33;;;;;;;6.50;1.40;;;;;;;13.02;67.40;101461.06;5034305;28;20033;-44
2022/12/06 01:25:59;;;;;;;6.35;1.55;;;;;;;13.02;67.55;101453.00;5033700;28;20374;-45
2022/12/06 01:28:26;;;;;;;7.55;1.38;;;;;;;12.97;67.81;101449.28;5034376;28;20060;-45
2022/12/06 01:30:52;;;;;;;5.40;1.40;;;;;;;12.89;67.74;101453.84;5034623;28;20485;-45
2022/12/06 01:33:18;;;;;;;8.82;1.45;;;;;;;12.83;68.09;101459.22;5031538;28;20021;-44
2022/12/06 01:35:45;;;;;;;9.30;1.70;;;;;;;12.91;68.08;101457.16;5034130;28;20486;-46
2022/12/06 01:38:11;;;;;;;7.70;1.77;;;;;;;12.85;68.40;101449.91;5033866;28;20059;-44
2022/12/06 01:40:40;;;;;;;12.88;2.47;;;;;;;12.79;68.56;101450.75;5034383;28;20029;-51
2022/12/06 01:43:28;;;;;;;10.35;2.10;;;;;;;12.85;69.17;101451.78;5032378;28;20030;-45
2022/12/06 01:45:56;;;;;;;13.85;1.90;;;;;;;12.71;69.53;101453.59;5033422;28;20084;-45
2022/12/06 01:48:25;;;;;;;7.95;1.77;;;;;;;12.66;69.83;101446.19;5020137;28;20038;-44
2022/12/06 01:50:55;;;;;;;13.77;2.78;;;;;;;12.66;70.03;101448.88;5014510;28;20052;-44
2022/12/06 01:53:24;;;;;;;7.82;2.10;;;;;;;12.67;69.86;101452.38;5014728;28;20017;-45
2022/12/06 01:55:50;;;;;;;8.30;2.03;;;;;;;12.65;70.16;101449.06;5020664;28;20513;-44
2022/12/06 01:58:22;;;;;;;8.27;1.95;;;;;;;12.47;70.63;101446.97;5034158;28;20375;-46
2022/12/06 02:00:48;;;;;;;8.65;1.92;;;;;;;12.43;70.56;101449.22;5034207;28;20047;-44
2022/12/06 02:03:21;;;;;;;5.68;1.55;;;;;;;12.35;70.69;101453.97;5034153;28;20095;-45
2022/12/06 02:05:48;;;;;;;9.13;1.90;;;;;;;12.27;70.88;101448.78;5032777;28;20041;-45
2022/12/06 02:08:15;;;;;;;7.95;2.25;;;;;;;12.22;71.10;101462.00;5033987;28;20051;-44
2022/12/06 02:10:41;;;;;;;10.52;2.38;;;;;;;12.19;71.09;101455.16;5033797;28;20544;-44
2022/12/06 02:13:08;;;;;;;7.15;2.15;;;;;;;12.14;71.14;101450.38;5033985;28;20026;-47
2022/12/06 02:16:12;;;;;;;6.88;1.80;;;;;;;12.13;71.19;101447.91;5033636;28;20032;-44
2022/12/06 02:19:33;;;;;;;9.05;2.85;;;;;;;12.13;71.47;101454.09;4995824;28;20405;-44
2022/12/06 02:22:10;;;;;;;7.70;2.10;;;;;;;12.10;71.64;101464.41;5019782;28;20469;-45
2022/12/06 02:24:57;;;;;;;15.63;2.67;;;;;;;12.02;71.87;101454.69;5032024;28;20037;-44
2022/12/06 02:27:57;;;;;;;7.65;2.75;;;;;;;11.96;72.35;101449.31;5020460;28;20141;-45
2022/12/06 02:30:54;;;;;;;6.93;2.58;;;;;;;11.83;72.75;101445.53;5033349;28;20390;-44
2022/12/06 02:33:35;;;;;;;6.85;2.55;;;;;;;11.79;72.92;101446.09;5023268;28;20029;-46
2022/12/06 02:36:12;;;;;;;9.60;2.42;;;;;;;11.71;73.39;101447.06;5013518;28;20030;-45
2022/12/06 02:38:47;;;;;;;10.43;2.92;;;;;;;11.71;73.21;101443.56;5025577;28;20041;-49
2022/12/06 02:41:59;;;;;;;8.98;2.30;;;;;;;11.66;73.36;101452.22;5030404;28;20022;-48
2022/12/06 02:44:36;;;;;;;14.25;3.22;;;;;;;11.59;73.57;101448.66;5015911;28;20041;-44
2022/12/06 02:47:06;;;;;;;9.27;2.90;;;;;;;11.59;73.39;101444.13;5013143;28;20038;-48
2022/12/06 02:49:36;;;;;;;8.40;3.03;;;;;;;11.55;73.32;101442.88;5028091;28;20057;-48
2022/12/06 02:52:04;;;;;;;11.50;3.85;;;;;;;11.50;73.22;101447.19;5013365;28;20101;-47
2022/12/06 02:54:31;;;;;;;9.45;3.95;;;;;;;11.44;73.17;101447.94;5015955;28;20028;-47
2022/12/06 02:56:57;;;;;;;13.73;4.32;;;;;;;11.36;73.20;101451.63;5028229;28;20583;-45
2022/12/06 02:59:23;;;;;;;8.82;3.90;;;;;;;11.32;73.28;101448.50;5031251;28;20025;-48
2022/12/06 03:01:55;;;;;;;8.35;3.47;;;;;;;11.28;73.42;101444.56;5016018;28;20127;-44
2022/12/06 03:04:32;;;;;;;10.65;4.13;;;;;;;11.27;73.39;101448.28;5015769;28;20470;-45
2022/12/06 03:07:07;;;;;;;7.57;3.65;;;;;;;11.20;73.44;101447.38;5013014;28;20407;-45
2022/12/06 03:09:51;;;;;;;7.07;3.67;;;;;;;11.16;73.61;101447.97;5017334;28;20079;-48
2022/12/06 03:12:24;;;;;;;10.27;4.43;;;;;;;11.16;73.52;101439.94;5032872;28;20116;-45
2022/12/06 03:15:13;;;;;;;12.27;4.38;;;;;;;11.07;73.79;101431.22;5032445;28;20105;-47
2022/12/06 03:18:20;;;;;;;11.20;4.50;;;;;;;11.02;74.01;101445.19;5032078;28;20031;-46
2022/12/06 03:20:55;;;;;;;12.07;4.38;;;;;;;10.97;74.02;101444.94;4984010;28;20037;-46
2022/12/06 03:23:29;;;;;;;10.23;3.97;;;;;;;10.94;74.21;101448.03;5027258;28;20050;-46
2022/12/06 03:25:59;;;;;;;9.75;3.70;;;;;;;10.89;74.05;101450.47;5012530;28;20041;-47
2022/12/06 03:28:28;;;;;;;15.48;4.18;;;;;;;10.79;74.96;101450.78;5020453;28;20014;-45
2022/12/06 03:31:00;;;;;;;10.35;3.88;;;;;;;10.78;75.03;101449.13;5032308;28;20034;-47
2022/12/06 03:33:27;;;;;;;7.38;3.08;;;;;;;10.81;74.97;101448.72;5032576;28;20026;-45
2022/12/06 03:35:55;;;;;;;7.68;3.35;;;;;;;10.83;75.04;101457.41;5032011;28;20134;-47
2022/12/06 03:38:32;;;;;;;10.35;3.50;;;;;;;10.79;75.31;101461.47;5031859;28;20100;-45
2022/12/06 03:41:04;;;;;;;9.85;3.00;;;;;;;10.82;75.23;101468.28;5032411;28;20044;-46
2022/12/06 03:43:32;;;;;;;7.13;2.95;;;;;;;10.80;75.25;101465.81;5024265;28;21140;-44
2022/12/06 03:46:10;;;;;;;11.80;3.70;;;;;;;10.80;75.13;101465.81;5012546;28;20030;-45
2022/12/06 03:48:49;;;;;;;7.07;3.15;;;;;;;10.77;75.23;101471.56;5017769;28;20026;-44
2022/12/06 03:51:28;;;;;;;11.95;3.40;;;;;;;10.77;75.53;101474.25;5017153;28;20026;-44
2022/12/06 03:53:58;;;;;;;8.85;3.80;;;;;;;10.78;75.47;101467.88;5002616;28;20404;-44
2022/12/06 03:56:25;;;;;;;11.30;4.25;;;;;;;10.38;78.33;101480.00;5012018;28;20049;-44
2022/12/06 03:58:51;;;;;;;15.40;5.20;;;;;;;10.29;79.00;101486.50;5015298;28;20095;-45
2022/12/06 04:01:17;;;;;;;20.35;6.40;;;;;;;10.41;78.81;101473.44;5012479;28;20026;-45
2022/12/06 04:03:44;;;;;;;15.38;5.10;;;;;;;10.35;79.29;101475.03;5013619;28;20037;-45
2022/12/06 04:06:11;;;;;;;15.30;5.40;;;;;;;10.20;80.33;101477.72;5012191;28;20098;-44
2022/12/06 04:08:37;;;;;;;12.73;4.97;;;;;;;10.23;80.52;101472.03;5017757;28;20033;-44
2022/12/06 04:11:04;;;;;;;10.20;4.35;;;;;;;10.27;80.42;101484.03;5012206;28;20026;-46
2022/12/06 04:13:31;;;;;;;13.38;4.43;;;;;;;10.45;79.55;101480.09;5016695;28;20513;-47
2022/12/06 04:15:59;;;;;;;9.82;4.13;;;;;;;10.51;79.25;101485.50;5012112;28;20034;-46
2022/12/06 04:18:26;;;;;;;12.30;4.28;;;;;;;10.71;78.40;101479.53;5022126;28;20478;-45
2022/12/06 04:23:43;;;;;;;11.15;3.58;;;;;;;10.88;77.38;101482.75;5031333;28;20049;-47
2022/12/06 04:26:12;;;;;;;10.68;3.50;;;;;;;10.68;78.27;101486.09;5031736;28;20033;-47
2022/12/06 04:39:37;;;;;;;10.90;3.72;;;;;;;10.50;80.23;101475.81;5025695;28;20615;-45
2022/12/06 04:44:48;;;;;;;15.65;4.40;;;;;;;10.50;79.96;101472.31;5036411;28;20149;-48
2022/12/06 04:47:15;;;;;;;7.95;3.22;;;;;;;10.51;79.53;101477.47;5030850;28;20033;-44
2022/12/06 04:49:41;;;;;;;12.77;3.78;;;;;;;10.55;79.51;101481.44;5035629;28;20044;-48
2022/12/06 04:52:08;;;;;;;12.05;3.80;;;;;;;10.52;79.21;101478.31;5028830;28;20131;-48
2022/12/06 04:54:35;;;;;;;7.07;3.75;;;;;;;10.48;79.28;101477.84;5015547;28;20030;-45
2022/12/06 04:57:02;;;;;;;8.20;3.70;;;;;;;10.44;79.03;101478.44;5022044;28;20547;-44
2022/12/06 04:59:29;;;;;;;9.05;3.08;;;;;;;10.40;79.09;101472.63;5035261;28;20092;-47
2022/12/06 05:01:55;;;;;;;10.02;3.70;;;;;;;10.22;79.77;101465.00;5022044;28;20057;-47
2022/12/06 05:04:22;;;;;;;9.90;3.47;;;;;;;10.19;80.63;101476.06;5017794;28;20044;-48
2022/12/06 05:06:48;;;;;;;12.25;3.90;;;;;;;10.08;81.37;101471.19;5019060;28;20025;-48
2022/12/06 05:09:15;;;;;;;8.52;3.47;;;;;;;10.08;81.28;101479.22;5034601;28;20072;-45
2022/12/06 05:11:41;;;;;;;6.97;3.40;;;;;;;10.23;80.59;101476.53;5020150;28;20112;-47
2022/12/06 05:14:08;;;;;;;10.85;3.47;;;;;;;10.25;80.06;101487.88;5016452;28;20025;-44
2022/12/06 05:16:34;;;;;;;10.98;3.50;;;;;;;10.27;79.78;101481.34;5034857;28;20021;-45
2022/12/06 05:19:01;;;;;;;9.07;3.20;;;;;;;10.33;79.73;101479.75;5034984;28;20446;-45
2022/12/06 05:21:27;;;;;;;16.88;3.95;;;;;;;9.98;81.10;101484.03;5018009;28;20430;-48
2022/12/06 05:23:55;;;;;;;14.25;4.25;;;;;;;9.49;84.10;101477.41;5015191;28;20030;-43
2022/12/06 05:26:24;;;;;;;10.10;4.00;;;;;;;9.49;84.40;101468.53;5032719;28;20040;-44
2022/12/06 05:28:51;;;;;;;12.75;4.93;;;;;;;9.70;83.49;101465.97;5034793;28;20017;-45
2022/12/06 05:31:18;;;;;;;7.50;3.97;;;;;;;9.91;82.37;101467.91;5028733;28;20055;-44
2022/12/06 05:33:45;;;;;;;9.30;4.80;;;;;;;9.96;81.62;101468.16;5034706;28;20390;-44
2022/12/06 05:36:14;;;;;;;13.43;4.72;;;;;;;10.01;81.22;101467.63;5033729;28;20029;-44
2022/12/06 05:38:40;;;;;;;6.50;4.00;;;;;;;10.05;80.93;101458.22;5034756;28;20029;-44
2022/12/06 05:41:06;;;;;;;11.73;4.60;;;;;;;10.02;80.87;101456.72;5033722;28;20041;-44
2022/12/06 05:43:33;;;;;;;8.20;4.25;;;;;;;10.00;80.82;101466.78;5033957;28;20469;-44
2022/12/06 05:45:59;;;;;;;11.15;3.67;;;;;;;10.02;80.61;101459.41;5034326;28;20439;-45
2022/12/06 05:48:26;;;;;;;10.85;4.30;;;;;;;10.03;80.35;101454.88;5034125;28;20022;-44
2022/12/06 05:50:53;;;;;;;15.38;5.60;;;;;;;10.04;80.45;101456.53;5030204;28;20533;-44
2022/12/06 05:53:20;;;;;;;17.83;5.97;;;;;;;10.08;80.32;101457.81;5018794;28;20486;-45
2022/12/06 05:55:47;;;;;;;11.88;5.38;;;;;;;10.20;80.08;101456.31;5015715;28;20049;-46
2022/12/06 05:58:13;;;;;;;11.82;6.18;;;;;;;10.22;79.89;101454.28;5022164;28;20034;-44
2022/12/06 06:00:40;;;;;;;13.40;4.53;;;;;;;10.38;79.91;101457.75;5021770;28;20030;-44
2022/12/06 06:03:06;;;;;;;12.75;4.35;;;;;;;10.41;80.37;101463.56;5033974;28;20025;-44
2022/12/06 06:05:33;;;;;;;13.25;4.40;;;;;;;10.41;81.10;101468.09;5033838;28;20091;-43
2022/12/06 06:07:59;;;;;;;12.88;4.18;;;;;;;10.37;81.51;101464.13;5033360;28;20563;-44
2022/12/06 06:10:25;;;;;;;14.60;3.70;;;;;;;10.45;81.43;101466.72;5033908;28;20087;-43
2022/12/06 06:12:52;;;;;;;12.38;3.80;;;;;;;10.38;82.07;101463.13;5033749;28;20390;-43
2022/12/06 06:15:18;;;;;;;12.82;3.92;;;;;;;10.26;82.73;101460.94;5033528;28;20048;-43
2022/12/06 06:17:44;;;;;;;11.73;4.40;;;;;;;10.44;82.34;101465.06;5032947;28;20440;-43
2022/12/06 06:20:12;;;;;;;13.93;3.33;;;;;;;10.35;82.59;101460.84;5026710;28;20025;-45
2022/12/06 06:22:40;;;;;;;12.48;3.85;;;;;;;10.46;82.50;101466.50;5033618;28;20544;-44
2022/12/06 06:25:07;;;;;;;8.90;4.20;;;;;;;10.50;82.17;101462.44;5013973;28;20045;-44
2022/12/06 06:27:36;;;;;;;9.98;4.03;;;;;;;10.47;81.96;101472.69;5013845;28;20026;-44
2022/12/06 06:30:07;;;;;;;9.77;3.88;;;;;;;10.56;81.78;101460.84;5032394;28;20025;-46
2022/12/06 06:32:33;;;;;;;8.85;3.65;;;;;;;10.47;81.97;101468.16;5033697;28;20075;-44
2022/12/06 06:34:59;;;;;;;9.07;2.83;;;;;;;10.62;81.51;101464.63;5033203;28;20021;-45
2022/12/06 06:37:26;;;;;;;7.07;2.42;;;;;;;10.48;81.94;101469.00;5033260;28;20026;-44
2022/12/06 06:39:52;;;;;;;10.68;2.92;;;;;;;10.55;81.80;101468.06;5032964;28;20036;-44
2022/12/06 06:42:19;;;;;;;10.02;2.90;;;;;;;10.64;81.28;101458.03;5032964;28;20022;-44
2022/12/06 06:44:45;;;;;;;5.78;2.25;;;;;;;10.56;81.48;101460.84;5033159;28;20068;-44
2022/12/06 06:47:11;;;;;;;9.75;2.53;;;;;;;10.62;81.64;101454.75;5032720;28;20037;-44
2022/12/06 06:49:37;;;;;;;17.15;3.13;;;;;;;10.56;81.93;101460.84;5033495;28;20478;-44
2022/12/06 06:52:04;;;;;;;11.27;2.80;;;;;;;10.66;81.56;101460.53;5032221;28;20033;-43
2022/12/06 06:54:30;;;;;;;12.15;2.90;;;;;;;10.72;81.17;101457.94;5032546;28;20074;-44
2022/12/06 06:56:57;;;;;;;9.85;2.58;;;;;;;10.67;80.87;101463.03;5032630;28;20033;-43
2022/12/06 06:59:24;;;;;;;9.05;2.80;;;;;;;10.80;80.37;101456.97;5033011;28;20474;-44
2022/12/06 07:01:50;;;;;;;8.23;2.60;;;;;;;10.82;80.40;101455.72;5032542;28;20470;-44
2022/12/06 07:04:17;;;;;;;8.90;2.60;;;;;;;10.79;80.46;101456.13;5017220;28;20026;-44
2022/12/06 07:06:43;;;;;;;14.57;2.67;;;;;;;10.96;79.88;101453.19;5014086;28;20026;-46
2022/12/06 07:09:10;;;;;;;9.73;2.28;;;;;;;10.90;79.91;101451.28;5013218;28;20022;-44
2022/12/06 07:11:37;;;;;;;9.07;2.58;;;;;;;10.79;80.27;101455.31;5018528;28;20136;-44
2022/12/06 07:14:03;;;;;;;11.82;2.22;;;;;;;10.77;80.19;101458.19;5013340;28;20548;-45
2022/12/06 07:16:29;;;;;;;12.40;2.67;;;;;;;10.80;80.19;101456.97;5015074;28;20026;-45
2022/12/06 07:18:56;;;;;;;11.38;2.63;;;;;;;10.91;79.59;101460.97;5013220;28;20095;-44
2022/12/06 07:21:22;;;;;;;5.65;2.28;;;;;;;10.91;79.54;101467.16;5020490;28;20041;-46
2022/12/06 07:23:49;;;;;;;6.22;2.08;;;;;;;10.87;79.81;101468.53;5012821;28;20579;-46
2022/12/06 07:26:19;;;;;;;9.07;2.05;;;;;;;10.86;79.66;101476.78;5014737;28;20065;-45
2022/12/06 07:28:47;;;;;;;4.85;1.88;;;;;;;10.90;79.67;101470.84;5017011;28;20432;-44
2022/12/06 07:31:21;;;;;;;7.18;1.80;;;;;;;10.90;79.66;101472.72;5012971;28;20033;-48
2022/12/06 07:33:51;;;;;;;9.30;2.20;;;;;;;11.12;78.60;101471.66;5017926;28;20026;-44
2022/12/06 07:36:17;;;;;;;12.55;2.70;;;;;;;11.05;78.68;101457.38;5012412;28;20474;-44
2022/12/06 07:38:48;;;;;;;6.25;1.90;;;;;;;11.04;78.68;101463.75;5018476;28;20037;-44
2022/12/06 07:46:47;;;;;;;6.25;1.90;;;;;;;11.08;77.96;101467.69;5012932;28;20104;-45
2022/12/06 07:49:14;;;;;;;5.43;1.67;;;;;;;11.01;77.90;101469.50;5023034;28;20030;-45
2022/12/06 07:51:41;;;;;;;7.32;2.35;;;;;;;10.94;77.93;101465.91;5032244;28;20036;-45
2022/12/06 07:54:07;;;;;;;8.13;2.03;;;;;;;11.03;77.16;101468.28;5031907;28;20405;-44
2022/12/06 07:56:34;;;;;;;4.93;1.52;;;;;;;10.94;77.23;101468.59;5025991;28;20464;-44
2022/12/06 07:59:01;;;;;;;6.97;1.85;;;;;;;11.00;76.96;101462.50;5012422;28;20030;-45
2022/12/06 08:01:27;;;;;;;9.68;1.75;;;;;;;10.92;77.56;101465.28;5018944;28;20052;-44
2022/12/06 08:03:55;;;;;;;7.15;1.50;;;;;;;10.95;77.73;101468.44;5032348;28;20029;-44
2022/12/06 08:06:22;;;;;;;4.50;1.50;;;;;;;10.90;77.64;101472.72;5028870;28;20029;-44
2022/12/06 08:08:48;;;;;;;8.05;1.65;;;;;;;11.10;77.38;101468.31;5012343;28;20053;-44
2022/12/06 08:11:14;;;;;;;8.65;2.20;;;;;;;11.13;76.83;101469.81;5031414;28;20026;-43
2022/12/06 08:13:41;;;;;;;4.28;1.35;;;;;;;11.08;76.86;101460.50;5010955;28;20037;-44
2022/12/06 08:16:09;;;;;;;6.07;1.63;;;;;;;10.96;77.21;101464.72;5013801;28;20022;-44
2022/12/06 08:18:36;;;;;;;4.40;1.55;;;;;;;10.90;77.61;101459.31;5025236;28;20068;-44
2022/12/06 08:21:02;;;;;;;5.97;1.70;;;;;;;10.89;77.77;101476.41;5031462;28;20033;-44
2022/12/06 08:23:29;;;;;;;4.85;1.67;;;;;;;10.98;77.39;101461.84;5031778;28;20099;-44
2022/12/06 08:26:00;;;;;;;5.25;1.42;;;;;;;10.91;77.60;101463.66;5031565;28;20032;-43
2022/12/06 08:28:28;;;;;;;6.80;1.50;;;;;;;10.88;77.62;101469.38;5030837;28;20037;-46
2022/12/06 08:30:54;;;;;;;4.63;1.58;;;;;;;10.89;77.31;101455.81;5011829;28;20037;-44
2022/12/06 08:33:21;;;;;;;2.85;1.35;;;;;;;10.80;77.41;101457.78;5027382;28;20037;-45
2022/12/06 08:35:48;;;;;;;4.30;1.52;;;;;;;10.72;77.49;101457.09;5011492;28;20022;-44
2022/12/06 08:38:15;;;;;;;4.40;1.27;;;;;;;10.71;77.59;101453.56;5029596;28;20036;-44
2022/12/06 08:40:42;;;;;;;3.75;1.77;;;;;;;10.71;77.42;101456.25;5031761;28;20022;-44
2022/12/06 08:43:08;;;;;;;2.97;1.30;;;;;;;10.65;77.53;101448.16;5031221;28;20072;-44
2022/12/06 08:45:34;;;;;;;6.80;2.15;;;;;;;10.67;77.50;101451.50;5031523;28;20144;-45
2022/12/06 08:48:01;;;;;;;3.30;1.38;;;;;;;10.72;77.43;101452.56;5031146;28;20435;-47
2022/12/06 08:50:27;;;;;;;3.30;1.45;;;;;;;10.74;77.25;101455.88;5031725;28;20105;-44
2022/12/06 08:52:53;;;;;;;4.55;1.58;;;;;;;10.67;77.26;101451.50;5031368;28;20080;-44
2022/12/06 08:55:19;;;;;;;5.97;1.45;;;;;;;10.64;77.46;101451.84;5031400;28;20068;-45
2022/12/06 08:57:46;;;;;;;4.97;1.20;;;;;;;10.64;77.46;101459.91;5022723;28;20116;-44
2022/12/06 09:00:12;;;;;;;3.67;1.27;;;;;;;10.65;77.47;101458.88;5011851;28;20056;-43
2022/12/06 09:02:39;;;;;;;10.70;1.83;;;;;;;10.43;79.02;101455.34;5018711;28;20029;-43
2022/12/06 09:05:06;;;;;;;6.68;1.98;;;;;;;10.40;79.29;101458.41;5024821;28;20033;-44
2022/12/06 09:07:32;;;;;;;3.97;1.80;;;;;;;10.56;78.74;101450.16;5020294;28;20494;-43
2022/12/06 09:09:58;;;;;;;4.95;1.52;;;;;;;10.57;78.67;101451.81;5011552;28;20029;-45
2022/12/06 09:12:25;;;;;;;4.25;1.50;;;;;;;10.60;78.60;101453.25;5014210;28;20549;-46
2022/12/06 09:14:51;;;;;;;4.85;1.70;;;;;;;10.71;78.63;101456.25;5011915;28;20113;-44
2022/12/06 09:17:17;;;;;;;7.93;1.70;;;;;;;10.73;78.60;101448.03;5017752;28;20037;-44
2022/12/06 09:19:43;;;;;;;4.20;1.90;;;;;;;10.75;78.88;101449.50;5015393;28;20375;-44
2022/12/06 09:22:09;;;;;;;7.82;2.53;;;;;;;10.86;78.55;101441.97;5018291;28;20022;-44
2022/12/06 09:24:36;;;;;;;3.03;1.48;;;;;;;10.75;78.89;101438.78;5015319;28;20525;-45
2022/12/06 09:27:02;;;;;;;5.57;1.85;;;;;;;10.84;78.53;101440.31;5016729;28;20486;-44
2022/12/06 09:29:28;;;;;;;5.22;2.13;;;;;;;11.01;77.89;101442.72;5015052;28;20026;-44
2022/12/06 09:31:54;;;;;;;6.93;2.67;;;;;;;10.84;78.18;101450.19;5017082;28;20528;-44
2022/12/06 09:34:21;;;;;;;3.45;1.63;;;;;;;10.76;78.63;101461.03;5014983;28;20029;-46
2022/12/06 09:36:54;;;;;;;5.03;2.10;;;;;;;10.81;78.83;101454.06;5018937;28;20474;-44
2022/12/06 09:39:27;;;;;;;4.55;1.70;;;;;;;10.72;78.84;101457.09;5014552;28;20509;-44
2022/12/06 09:42:05;;;;;;;4.47;1.90;;;;;;;10.69;79.08;101454.78;5018233;28;20028;-47
2022/12/06 09:44:50;;;;;;;6.00;1.73;;;;;;;10.70;79.16;101457.28;5015064;28;20050;-44
2022/12/06 09:47:22;;;;;;;3.88;1.48;;;;;;;10.70;79.30;101456.44;5021772;28;20037;-43
2022/12/06 09:50:27;;;;;;;3.45;1.67;;;;;;;10.87;78.37;101451.66;5014411;28;20132;-44
2022/12/06 09:53:13;;;;;;;3.30;1.70;;;;;;;10.95;78.67;101448.84;4975032;28;20041;-43
2022/12/06 09:55:39;;;;;;;5.57;2.00;;;;;;;10.81;79.02;101459.44;5015688;28;20121;-44
2022/12/06 09:58:39;;;;;;;5.93;1.75;;;;;;;10.92;78.97;101451.91;5020691;28;20029;-44
2022/12/06 10:01:27;;;;;;;5.97;2.40;;;;;;;11.24;77.15;101448.66;5033969;28;20072;-44
2022/12/06 10:04:27;;;;;;;6.03;1.95;;;;;;;10.96;77.80;101445.97;5034068;28;20486;-44
2022/12/06 10:06:57;;;;;;;4.78;1.60;;;;;;;11.09;77.68;101442.56;5033606;28;20483;-43
2022/12/06 10:09:48;;;;;;;5.85;1.95;;;;;;;10.79;78.24;101444.59;5034132;28;20461;-45
2022/12/06 10:12:33;;;;;;;4.38;1.45;;;;;;;11.07;77.05;101442.75;5027433;28;20014;-43
2022/12/06 10:15:20;;;;;;;9.43;1.95;;;;;;;10.76;78.12;101453.00;5014311;28;20061;-45
2022/12/06 10:18:23;;;;;;;3.72;1.05;;;;;;;10.62;78.47;101452.06;5016985;28;20022;-44
2022/12/06 10:21:16;;;;;;;7.72;1.73;;;;;;;10.27;79.11;101457.25;5014619;28;20029;-43
2022/12/06 10:24:02;;;;;;;5.60;1.30;;;;;;;10.23;79.96;101461.31;4968312;28;20048;-44
2022/12/06 10:26:48;;;;;;;7.47;1.50;;;;;;;10.51;78.97;101458.75;5022735;28;20465;-43
2022/12/06 10:29:25;;;;;;;5.80;1.52;;;;;;;10.43;79.17;101460.69;5033646;28;20033;-44
2022/12/06 10:32:16;;;;;;;2.67;1.33;;;;;;;10.56;78.73;101461.69;5020547;28;20116;-43
2022/12/06 10:34:48;;;;;;;4.60;1.20;;;;;;;10.64;78.50;101454.53;5014269;28;20033;-44
2022/12/06 10:37:33;;;;;;;8.65;1.55;;;;;;;10.57;79.09;101451.81;5033473;28;20029;-46
2022/12/06 10:40:16;;;;;;;3.65;1.40;;;;;;;10.59;79.07;101455.09;5033227;28;20033;-45
2022/12/06 10:42:47;;;;;;;3.80;1.20;;;;;;;10.68;78.68;101461.19;5033598;28;20439;-45
2022/12/06 10:48:39;;;;;;;4.10;1.65;;;;;;;10.89;78.40;101466.53;5033470;28;20035;-44
2022/12/06 10:51:20;;;;;;;4.85;1.40;;;;;;;10.79;79.09;101466.00;4969812;28;20442;-44
2022/12/06 10:53:56;;;;;;;5.50;1.27;;;;;;;10.72;78.90;101467.81;5013608;28;20570;-44
2022/12/06 10:56:40;;;;;;;5.65;1.30;;;;;;;10.69;78.65;101466.34;5025437;28;20045;-44
2022/12/06 10:59:35;;;;;;;2.80;1.27;;;;;;;10.74;78.75;101469.25;5033269;28;20124;-44
2022/12/06 11:02:19;;;;;;;3.40;0.90;;;;;;;10.76;78.87;101464.53;5032693;28;20036;-44
2022/12/06 11:04:48;;;;;;;2.75;1.00;;;;;;;10.73;78.67;101467.63;5032377;28;20021;-47
2022/12/06 11:07:23;;;;;;;4.28;1.13;;;;;;;10.88;78.11;101475.56;5033003;28;20037;-49
2022/12/06 11:09:52;;;;;;;3.92;0.85;;;;;;;10.71;77.43;101461.59;5032527;28;20029;-45
2022/12/06 11:12:18;;;;;;;1.73;0.65;;;;;;;10.71;76.56;101466.97;5015215;28;20422;-47
2022/12/06 11:14:50;;;;;;;1.35;0.50;;;;;;;10.82;76.18;101468.28;5024219;28;20022;-46
2022/12/06 11:17:40;;;;;;;5.60;0.65;;;;;;;10.88;75.41;101464.00;5015623;28;20540;-46
2022/12/06 11:20:28;;;;;;;1.23;0.60;;;;;;;10.74;76.01;101468.44;5032487;28;20394;-44
2022/12/06 11:22:55;;;;;;;1.95;0.60;;;;;;;10.68;76.13;101466.53;5022798;28;20025;-44
2022/12/06 11:25:35;;;;;;;1.23;0.40;;;;;;;10.58;76.50;101461.47;5030039;28;20048;-46
2022/12/06 11:28:35;;;;;;;1.92;0.50;;;;;;;10.62;76.61;101465.44;5032511;28;20487;-47
2022/12/06 11:31:10;;;;;;;2.08;0.50;;;;;;;10.54;76.88;101469.06;5032244;28;20045;-48
2022/12/06 11:33:36;;;;;;;1.90;0.60;;;;;;;10.48;77.49;101467.13;5032638;28;20064;-45
2022/12/06 11:36:05;;;;;;;3.13;1.13;;;;;;;10.48;77.71;101458.28;5031584;28;20026;-45
2022/12/06 11:38:34;;;;;;;6.20;1.83;;;;;;;10.62;78.13;101457.41;5032316;28;20040;-48
2022/12/06 11:41:01;;;;;;;3.45;1.30;;;;;;;10.55;78.14;101451.19;5031983;28;20025;-45
2022/12/06 11:43:34;;;;;;;4.43;1.25;;;;;;;10.91;77.91;101452.94;5032369;28;20021;-44
2022/12/06 11:46:02;;;;;;;6.70;1.60;;;;;;;10.65;78.29;101456.19;5031957;28;20104;-48
2022/12/06 11:48:33;;;;;;;3.33;1.38;;;;;;;10.88;78.05;101461.34;5032131;28;20021;-47
2022/12/06 11:51:00;;;;;;;4.80;1.50;;;;;;;10.70;78.73;101459.13;5031917;28;20088;-48
2022/12/06 11:53:44;;;;;;;5.90;1.27;;;;;;;10.75;78.74;101454.84;5032190;28;20482;-44
2022/12/06 11:56:26;;;;;;;2.50;0.98;;;;;;;10.62;78.67;101449.38;5031572;28;20076;-47
2022/12/06 11:58:59;;;;;;;2.35;1.00;;;;;;;10.68;78.54;101453.16;5032051;28;20447;-48
2022/12/06 12:01:44;;;;;;;4.93;0.98;;;;;;;10.74;78.06;101447.84;5023525;28;20056;-49
2022/12/06 12:04:28;;;;;;;2.15;0.73;;;;;;;10.78;77.49;101451.81;5018505;28;20025;-44
2022/12/06 12:07:08;;;;;;;4.40;1.27;;;;;;;10.83;77.21;101445.88;5031067;28;20382;-46
2022/12/06 12:09:59;;;;;;;3.65;1.52;;;;;;;10.62;78.58;101449.38;5024137;28;20037;-44